• Join FlightAware (Why Join?)
  • Login
  • US Flag GB Flag 
16:44 EDT


 

Airport Tracker/Info


-or-


 

Live Flight TrackerFlight Track Log ✈ JBU1329 ✈ 27-Apr-2013 ✈ KBOS - KBWI

Flight Track Log - Related Links

Times and Time Zones

All times are in EDT time to prevent confusion due to time zone crossing. See the JBU1329 flight status page for this flight to view local times or setup timezone preferences in your user account.

Time Position Orientation Groundspeed Altitude Reporting Facility
EDT Latitude Longitude Course Direction KTS MPH feet Rate Location/Type
08:21 42.3667 -70.9833 257° West 223 257 600  Level KA90
08:22 42.3667 -70.9000 90° East 201 231 2,800 2,340 Climbing KA90
08:23 42.3408 -70.8167 113° Southeast 269 310 6,400 3,060 Climbing Boston Center
08:24 42.2669 -70.7663 228° Southwest  Level FlightAware Approximate
08:24 42.2653 -70.7878 164° South 263 303 9,700  Level Boston Center
08:25 42.2053 -70.8822 240° Southwest  Level FlightAware Approximate
08:25 42.2058 -70.8481 217° Southwest 239 275 11,400  Level Boston Center
08:26 42.1751 -71.0164 257° West  Level FlightAware Approximate
08:26 42.1869 -70.9886 260° West 273 314 14,500  Level Boston Center
08:27 42.1697 -71.1094 259° West 338 389 16,800 2,100 Climbing Boston Center
08:28 42.1522 -71.2358 259° West 379 436 18,700 2,040 Climbing Boston Center
08:29 42.1353 -71.4069 262° West 390 449 20,900 1,920 Climbing Boston Center
08:30 42.1136 -71.5558 259° West 397 457 22,600 1,800 Climbing Boston Center
08:31 42.0917 -71.6875 257° West 402 463 24,600 1,620 Climbing Boston Center
08:32 42.0694 -71.8389 259° West 407 468 25,900 1,500 Climbing Boston Center
08:33 42.0453 -71.9956 258° West 420 483 27,700 1,020 Climbing Boston Center
08:34 42.0228 -72.1467 259° West 420 483 28,000 120 Climbing Boston Center
08:35 42.0003 -72.3003 259° West 420 483 28,000  Level Boston Center
08:36 41.9397 -72.4344 239° Southwest 419 482 28,000 -60 Level Boston Center
08:37 41.8669 -72.5600 232° Southwest 425 489 27,900 -60 Descending Boston Center
08:38 41.7978 -72.6850 233° Southwest 425 489 27,900  Level Boston Center
08:39 41.7244 -72.8128 232° Southwest 435 501 28,000  Climbing Boston Center
08:40 41.6531 -72.9375 233° Southwest 435 501 28,000 -60 Level Boston Center
08:42 41.5206 -73.1708 233° Southwest 423 487 27,900 -60 Descending New York Center
08:43 41.4492 -73.2983 233° Southwest 428 493 27,900  Level New York Center
08:44 41.3778 -73.4172 231° Southwest 428 493 27,900  Level New York Center
08:45 41.3081 -73.5442 234° Southwest 434 499 28,000  Climbing New York Center
08:46 41.2344 -73.6681 232° Southwest 434 499 27,900 -60 Descending New York Center
08:47 41.1606 -73.7917 232° Southwest 434 499 27,900  Level New York Center
08:48 41.0886 -73.9122 232° Southwest 434 499 27,900 -180 Level New York Center
08:49 41.0186 -74.0328 232° Southwest 429 494 27,600 -660 Descending New York Center
08:50 40.9489 -74.1475 231° Southwest 424 488 26,700 -900 Descending New York Center
08:51 40.8811 -74.2567 231° Southwest 414 476 25,900 -420 Descending New York Center
08:52 40.8131 -74.3683 231° Southwest 404 465 25,900  Level New York Center
08:53 40.7406 -74.4878 231° Southwest 410 472 25,900 -600 Level New York Center
08:54 40.6725 -74.6017 232° Southwest 410 472 24,800 -1,140 Descending New York Center
08:55 40.6131 -74.6967 231° Southwest 394 453 23,700 -1,200 Descending New York Center
08:56 40.5450 -74.7939 227° Southwest 381 438 22,500 -1,200 Descending New York Center
08:57 40.4769 -74.8936 228° Southwest 371 427 21,300 -1,260 Descending New York Center
08:58 40.4092 -74.9878 227° Southwest 371 427 20,100 -1,200 Descending New York Center
08:59 40.3344 -75.0947 228° Southwest 371 427 19,000 -1,080 Descending New York Center
09:00 40.2750 -75.1808 228° Southwest 365 420 18,000 -540 Descending New York Center
09:01 40.1958 -75.2872 226° Southwest 366 421 18,000  Level New York Center
09:02 40.1256 -75.3831 226° Southwest 366 421 18,000  Level New York Center
09:03 40.0569 -75.4789 227° Southwest 366 421 18,000  Level New York Center
09:04 39.9908 -75.5719 227° Southwest 366 421 18,000 -120 Level New York Center
09:05 39.9222 -75.6647 226° Southwest 361 415 17,800 -420 Descending New York Center
09:06 39.8703 -75.7611 235° Southwest 361 415 17,200 -960 Descending New York Center
09:07 39.8181 -75.8628 236° Southwest 356 410 16,000 -1,620 Descending New York Center
09:09 39.7167 -76.0500 235° Southwest 367 422 13,100 -1,500 Descending Potomac TRACON
09:10 39.6667 -76.1667 241° Southwest 333 383 12,000 -1,140 Descending Potomac TRACON
09:11 39.6000 -76.2333 218° Southwest 304 350 10,900 -1,380 Descending Potomac TRACON
09:12 39.5333 -76.3000 218° Southwest 298 343 9,400 -1,440 Descending Potomac TRACON
09:13 39.4667 -76.3667 218° Southwest 287 330 7,900 -1,500 Descending Potomac TRACON
09:14 39.4167 -76.4167 218° Southwest 284 327 6,400 -1,500 Descending Potomac TRACON
09:15 39.3333 -76.4333 189° South 278 320 5,200 -900 Descending Potomac TRACON
09:16 39.2667 -76.4500 191° South 269 310 4,800 -960 Descending Potomac TRACON
09:17 39.2000 -76.4667 191° South 262 302 3,300 -960 Descending Potomac TRACON
09:17 39.1333 -76.4833 191° South 238 274 3,000 -180 Descending Potomac TRACON
09:19 39.0833 -76.5333 218° Southwest 189 217 3,000  Level Potomac TRACON